sensor_id;sensor_type;location;lat;lon;timestamp;P1;durP1;ratioP1;P2;durP2;ratioP2
36773;SDS011;22730;51.980;5.934;2023-09-07T03:05:45;2.00;;;1.70;;
36773;SDS011;22730;51.980;5.934;2023-09-07T03:08:15;3.70;;;1.63;;
36773;SDS011;22730;51.980;5.934;2023-09-07T03:10:42;1.55;;;1.50;;
36773;SDS011;22730;51.980;5.934;2023-09-07T03:13:14;1.67;;;1.58;;
36773;SDS011;22730;51.980;5.934;2023-09-07T03:15:40;5.43;;;1.92;;
36773;SDS011;22730;51.980;5.934;2023-09-07T03:18:16;8.35;;;2.20;;
36773;SDS011;22730;51.980;5.934;2023-09-07T03:20:42;3.15;;;1.88;;
36773;SDS011;22730;51.980;5.934;2023-09-07T03:23:09;7.07;;;2.20;;
36773;SDS011;22730;51.980;5.934;2023-09-07T03:25:35;4.20;;;2.15;;
36773;SDS011;22730;51.980;5.934;2023-09-07T03:28:04;5.65;;;2.30;;
36773;SDS011;22730;51.980;5.934;2023-09-07T03:30:31;4.40;;;2.10;;
36773;SDS011;22730;51.980;5.934;2023-09-07T03:32:58;6.45;;;2.15;;
36773;SDS011;22730;51.980;5.934;2023-09-07T03:35:26;6.88;;;2.40;;
36773;SDS011;22730;51.980;5.934;2023-09-07T03:38:18;6.57;;;1.77;;
36773;SDS011;22730;51.980;5.934;2023-09-07T03:40:46;2.92;;;1.90;;
36773;SDS011;22730;51.980;5.934;2023-09-07T03:45:44;7.25;;;2.10;;
36773;SDS011;22730;51.980;5.934;2023-09-07T03:48:13;2.22;;;2.00;;
36773;SDS011;22730;51.980;5.934;2023-09-07T03:50:40;1.92;;;1.83;;
36773;SDS011;22730;51.980;5.934;2023-09-07T03:53:12;2.15;;;2.00;;
36773;SDS011;22730;51.980;5.934;2023-09-07T03:55:50;2.28;;;2.17;;
36773;SDS011;22730;51.980;5.934;2023-09-07T03:58:28;1.85;;;1.75;;
36773;SDS011;22730;51.980;5.934;2023-09-07T04:00:59;9.52;;;2.28;;
36773;SDS011;22730;51.980;5.934;2023-09-07T04:06:38;5.95;;;2.28;;
36773;SDS011;22730;51.980;5.934;2023-09-07T04:09:04;2.55;;;1.98;;
36773;SDS011;22730;51.980;5.934;2023-09-07T04:14:35;3.97;;;1.98;;
36773;SDS011;22730;51.980;5.934;2023-09-07T04:17:01;7.63;;;2.35;;
36773;SDS011;22730;51.980;5.934;2023-09-07T04:41:19;2.30;;;2.10;;
36773;SDS011;22730;51.980;5.934;2023-09-07T04:43:48;2.70;;;2.50;;
36773;SDS011;22730;51.980;5.934;2023-09-07T04:46:26;2.20;;;2.10;;
36773;SDS011;22730;51.980;5.934;2023-09-07T04:48:52;1.95;;;1.85;;
36773;SDS011;22730;51.980;5.934;2023-09-07T04:51:23;2.33;;;2.22;;
36773;SDS011;22730;51.980;5.934;2023-09-07T04:53:53;3.33;;;2.28;;
36773;SDS011;22730;51.980;5.934;2023-09-07T04:56:20;1.98;;;1.88;;
36773;SDS011;22730;51.980;5.934;2023-09-07T04:58:47;2.22;;;2.13;;
36773;SDS011;22730;51.980;5.934;2023-09-07T05:01:15;2.58;;;2.33;;
36773;SDS011;22730;51.980;5.934;2023-09-07T05:03:43;2.10;;;2.00;;
36773;SDS011;22730;51.980;5.934;2023-09-07T05:06:10;6.03;;;5.55;;
36773;SDS011;22730;51.980;5.934;2023-09-07T05:08:36;8.57;;;7.78;;
36773;SDS011;22730;51.980;5.934;2023-09-07T05:11:03;9.32;;;8.23;;
36773;SDS011;22730;51.980;5.934;2023-09-07T05:13:30;12.90;;;11.70;;
36773;SDS011;22730;51.980;5.934;2023-09-07T05:16:00;13.70;;;12.40;;
36773;SDS011;22730;51.980;5.934;2023-09-07T05:18:27;13.57;;;12.27;;
36773;SDS011;22730;51.980;5.934;2023-09-07T05:20:56;15.20;;;13.73;;
36773;SDS011;22730;51.980;5.934;2023-09-07T11:11:46;3.85;;;2.97;;
36773;SDS011;22730;51.980;5.934;2023-09-07T11:14:12;3.08;;;2.70;;
36773;SDS011;22730;51.980;5.934;2023-09-07T11:16:40;3.20;;;3.00;;
36773;SDS011;22730;51.980;5.934;2023-09-07T11:19:08;3.70;;;3.40;;
36773;SDS011;22730;51.980;5.934;2023-09-07T11:21:37;3.42;;;3.15;;
36773;SDS011;22730;51.980;5.934;2023-09-07T11:24:05;4.10;;;2.78;;
36773;SDS011;22730;51.980;5.934;2023-09-07T11:26:46;3.35;;;3.15;;
36773;SDS011;22730;51.980;5.934;2023-09-07T11:29:16;3.17;;;2.88;;
36773;SDS011;22730;51.980;5.934;2023-09-07T11:31:46;2.72;;;2.53;;
36773;SDS011;22730;51.980;5.934;2023-09-07T11:34:17;3.17;;;2.97;;
36773;SDS011;22730;51.980;5.934;2023-09-07T11:36:43;3.30;;;3.10;;
36773;SDS011;22730;51.980;5.934;2023-09-07T11:39:09;4.07;;;3.78;;
36773;SDS011;22730;51.980;5.934;2023-09-07T11:41:41;3.42;;;3.13;;
36773;SDS011;22730;51.980;5.934;2023-09-07T11:44:08;2.95;;;2.75;;
36773;SDS011;22730;51.980;5.934;2023-09-07T11:46:34;2.65;;;2.45;;
36773;SDS011;22730;51.980;5.934;2023-09-07T11:49:01;3.00;;;2.80;;
36773;SDS011;22730;51.980;5.934;2023-09-07T11:51:30;3.58;;;3.15;;
36773;SDS011;22730;51.980;5.934;2023-09-07T11:53:56;3.20;;;2.90;;
36773;SDS011;22730;51.980;5.934;2023-09-07T11:56:22;3.45;;;3.13;;
36773;SDS011;22730;51.980;5.934;2023-09-07T11:58:47;3.38;;;3.10;;
36773;SDS011;22730;51.980;5.934;2023-09-07T12:01:13;2.90;;;2.70;;
36773;SDS011;22730;51.980;5.934;2023-09-07T12:03:42;2.95;;;2.75;;
36773;SDS011;22730;51.980;5.934;2023-09-07T12:06:08;3.08;;;2.88;;
36773;SDS011;22730;51.980;5.934;2023-09-07T12:08:34;3.63;;;3.00;;
36773;SDS011;22730;51.980;5.934;2023-09-07T12:11:01;3.40;;;3.20;;
36773;SDS011;22730;51.980;5.934;2023-09-07T12:13:29;2.80;;;2.60;;
36773;SDS011;22730;51.980;5.934;2023-09-07T12:15:55;3.60;;;3.15;;
36773;SDS011;22730;51.980;5.934;2023-09-07T12:18:21;2.63;;;2.42;;
36773;SDS011;22730;51.980;5.934;2023-09-07T12:20:49;4.97;;;3.05;;
36773;SDS011;22730;51.980;5.934;2023-09-07T12:23:14;2.97;;;2.78;;
36773;SDS011;22730;51.980;5.934;2023-09-07T12:25:43;2.88;;;2.67;;
36773;SDS011;22730;51.980;5.934;2023-09-07T12:28:16;3.67;;;3.45;;
36773;SDS011;22730;51.980;5.934;2023-09-07T12:30:42;3.17;;;2.97;;
36773;SDS011;22730;51.980;5.934;2023-09-07T12:33:09;2.95;;;2.75;;
36773;SDS011;22730;51.980;5.934;2023-09-07T12:35:35;3.00;;;2.67;;
36773;SDS011;22730;51.980;5.934;2023-09-07T12:38:01;4.18;;;2.97;;
36773;SDS011;22730;51.980;5.934;2023-09-07T12:40:28;2.95;;;2.75;;
36773;SDS011;22730;51.980;5.934;2023-09-07T12:42:59;3.67;;;3.38;;
36773;SDS011;22730;51.980;5.934;2023-09-07T12:45:25;3.80;;;3.20;;
36773;SDS011;22730;51.980;5.934;2023-09-07T12:47:51;3.03;;;2.80;;
36773;SDS011;22730;51.980;5.934;2023-09-07T12:50:19;2.50;;;2.40;;
36773;SDS011;22730;51.980;5.934;2023-09-07T12:52:45;3.83;;;3.53;;
36773;SDS011;22730;51.980;5.934;2023-09-07T12:55:13;3.47;;;3.20;;
36773;SDS011;22730;51.980;5.934;2023-09-07T12:57:39;3.70;;;3.40;;
36773;SDS011;22730;51.980;5.934;2023-09-07T13:00:05;4.30;;;3.00;;
36773;SDS011;22730;51.980;5.934;2023-09-07T13:02:35;3.03;;;2.83;;
36773;SDS011;22730;51.980;5.934;2023-09-07T13:05:04;3.35;;;3.05;;
36773;SDS011;22730;51.980;5.934;2023-09-07T13:07:33;2.97;;;2.78;;
36773;SDS011;22730;51.980;5.934;2023-09-07T13:10:04;3.10;;;2.90;;
36773;SDS011;22730;51.980;5.934;2023-09-07T13:12:33;3.30;;;3.10;;
36773;SDS011;22730;51.980;5.934;2023-09-07T13:14:59;3.33;;;3.03;;
36773;SDS011;22730;51.980;5.934;2023-09-07T13:17:25;3.08;;;2.88;;
36773;SDS011;22730;51.980;5.934;2023-09-07T13:19:53;2.95;;;2.75;;
36773;SDS011;22730;51.980;5.934;2023-09-07T13:22:19;3.55;;;3.35;;
36773;SDS011;22730;51.980;5.934;2023-09-07T13:24:47;3.85;;;3.10;;
36773;SDS011;22730;51.980;5.934;2023-09-07T13:29:44;3.60;;;3.10;;
36773;SDS011;22730;51.980;5.934;2023-09-07T13:32:10;3.17;;;2.97;;
36773;SDS011;22730;51.980;5.934;2023-09-07T13:34:36;3.33;;;3.10;;
36773;SDS011;22730;51.980;5.934;2023-09-07T13:37:02;2.60;;;2.40;;
36773;SDS011;22730;51.980;5.934;2023-09-07T13:39:31;2.90;;;2.70;;
36773;SDS011;22730;51.980;5.934;2023-09-07T13:41:58;2.88;;;2.67;;
36773;SDS011;22730;51.980;5.934;2023-09-07T13:44:24;3.63;;;3.33;;
36773;SDS011;22730;51.980;5.934;2023-09-07T13:46:50;3.58;;;3.28;;
36773;SDS011;22730;51.980;5.934;2023-09-07T13:49:18;2.72;;;2.53;;
36773;SDS011;22730;51.980;5.934;2023-09-07T13:51:44;2.75;;;2.65;;
36773;SDS011;22730;51.980;5.934;2023-09-07T13:54:10;3.10;;;2.90;;
36773;SDS011;22730;51.980;5.934;2023-09-07T13:56:35;4.05;;;3.65;;
36773;SDS011;22730;51.980;5.934;2023-09-07T13:59:01;3.97;;;3.67;;
36773;SDS011;22730;51.980;5.934;2023-09-07T14:01:27;3.08;;;2.88;;
36773;SDS011;22730;51.980;5.934;2023-09-07T14:03:53;3.95;;;3.65;;
36773;SDS011;22730;51.980;5.934;2023-09-07T14:06:19;3.55;;;3.35;;
36773;SDS011;22730;51.980;5.934;2023-09-07T14:08:48;4.05;;;3.75;;
36773;SDS011;22730;51.980;5.934;2023-09-07T14:11:16;3.97;;;3.58;;
36773;SDS011;22730;51.980;5.934;2023-09-07T14:13:42;4.25;;;3.90;;
36773;SDS011;22730;51.980;5.934;2023-09-07T14:16:08;4.65;;;3.97;;
36773;SDS011;22730;51.980;5.934;2023-09-07T14:18:36;6.38;;;4.95;;
36773;SDS011;22730;51.980;5.934;2023-09-07T14:21:02;4.47;;;4.07;;
36773;SDS011;22730;51.980;5.934;2023-09-07T14:23:28;5.35;;;4.40;;
36773;SDS011;22730;51.980;5.934;2023-09-07T14:25:55;4.93;;;3.70;;
36773;SDS011;22730;51.980;5.934;2023-09-07T14:28:21;3.55;;;3.35;;
36773;SDS011;22730;51.980;5.934;2023-09-07T14:30:47;4.20;;;3.90;;
36773;SDS011;22730;51.980;5.934;2023-09-07T14:33:13;3.42;;;3.13;;
36773;SDS011;22730;51.980;5.934;2023-09-07T14:35:39;4.38;;;3.67;;
36773;SDS011;22730;51.980;5.934;2023-09-07T14:38:05;4.03;;;3.72;;
36773;SDS011;22730;51.980;5.934;2023-09-07T14:40:30;3.38;;;3.13;;
36773;SDS011;22730;51.980;5.934;2023-09-07T14:42:56;4.95;;;3.88;;
36773;SDS011;22730;51.980;5.934;2023-09-07T14:45:25;3.90;;;3.60;;
36773;SDS011;22730;51.980;5.934;2023-09-07T14:47:51;4.28;;;3.88;;
36773;SDS011;22730;51.980;5.934;2023-09-07T14:50:17;3.65;;;3.40;;
36773;SDS011;22730;51.980;5.934;2023-09-07T14:52:43;4.43;;;3.50;;
36773;SDS011;22730;51.980;5.934;2023-09-07T14:55:12;4.28;;;3.20;;
36773;SDS011;22730;51.980;5.934;2023-09-07T14:57:44;4.57;;;4.03;;
36773;SDS011;22730;51.980;5.934;2023-09-07T15:00:10;4.15;;;3.85;;
36773;SDS011;22730;51.980;5.934;2023-09-07T15:02:36;4.70;;;4.30;;
36773;SDS011;22730;51.980;5.934;2023-09-07T15:05:02;3.78;;;3.30;;
36773;SDS011;22730;51.980;5.934;2023-09-07T15:07:28;5.43;;;4.00;;
36773;SDS011;22730;51.980;5.934;2023-09-07T15:09:54;3.42;;;3.20;;
36773;SDS011;22730;51.980;5.934;2023-09-07T15:12:20;4.78;;;3.97;;
36773;SDS011;22730;51.980;5.934;2023-09-07T15:14:46;4.15;;;3.78;;
36773;SDS011;22730;51.980;5.934;2023-09-07T15:17:12;3.63;;;3.42;;
36773;SDS011;22730;51.980;5.934;2023-09-07T15:19:39;6.53;;;3.60;;
36773;SDS011;22730;51.980;5.934;2023-09-07T15:22:05;4.60;;;4.20;;
36773;SDS011;22730;51.980;5.934;2023-09-07T15:24:31;4.20;;;3.80;;
36773;SDS011;22730;51.980;5.934;2023-09-07T15:26:56;6.85;;;4.25;;
36773;SDS011;22730;51.980;5.934;2023-09-07T15:29:22;4.38;;;3.40;;
36773;SDS011;22730;51.980;5.934;2023-09-07T15:31:48;4.25;;;3.90;;
36773;SDS011;22730;51.980;5.934;2023-09-07T15:34:15;3.47;;;3.20;;
36773;SDS011;22730;51.980;5.934;2023-09-07T15:36:41;4.55;;;4.15;;
36773;SDS011;22730;51.980;5.934;2023-09-07T15:39:10;4.68;;;4.32;;
36773;SDS011;22730;51.980;5.934;2023-09-07T15:41:35;4.75;;;4.13;;
36773;SDS011;22730;51.980;5.934;2023-09-07T15:44:01;4.00;;;3.70;;
36773;SDS011;22730;51.980;5.934;2023-09-07T15:46:27;3.75;;;3.45;;
36773;SDS011;22730;51.980;5.934;2023-09-07T15:48:54;5.05;;;3.83;;
36773;SDS011;22730;51.980;5.934;2023-09-07T15:51:19;4.20;;;3.90;;
36773;SDS011;22730;51.980;5.934;2023-09-07T15:53:45;4.18;;;3.88;;
36773;SDS011;22730;51.980;5.934;2023-09-07T15:56:11;3.97;;;3.58;;
36773;SDS011;22730;51.980;5.934;2023-09-07T15:58:37;3.80;;;3.50;;
36773;SDS011;22730;51.980;5.934;2023-09-07T16:01:03;4.47;;;4.05;;
36773;SDS011;22730;51.980;5.934;2023-09-07T16:03:29;3.90;;;3.60;;
36773;SDS011;22730;51.980;5.934;2023-09-07T16:05:54;4.20;;;3.80;;
36773;SDS011;22730;51.980;5.934;2023-09-07T16:08:20;4.82;;;3.92;;
36773;SDS011;22730;51.980;5.934;2023-09-07T16:10:46;3.97;;;3.67;;
36773;SDS011;22730;51.980;5.934;2023-09-07T16:13:12;3.92;;;3.63;;
36773;SDS011;22730;51.980;5.934;2023-09-07T16:15:38;4.60;;;4.18;;
36773;SDS011;22730;51.980;5.934;2023-09-07T16:18:04;3.35;;;3.15;;
36773;SDS011;22730;51.980;5.934;2023-09-07T16:20:30;4.20;;;3.80;;
36773;SDS011;22730;51.980;5.934;2023-09-07T16:22:56;4.30;;;3.90;;
36773;SDS011;22730;51.980;5.934;2023-09-07T16:25:22;4.22;;;3.92;;
36773;SDS011;22730;51.980;5.934;2023-09-07T16:27:48;5.00;;;3.67;;
36773;SDS011;22730;51.980;5.934;2023-09-07T16:30:17;4.05;;;3.75;;
36773;SDS011;22730;51.980;5.934;2023-09-07T16:32:46;3.90;;;3.60;;
36773;SDS011;22730;51.980;5.934;2023-09-07T16:35:12;4.03;;;3.22;;
36773;SDS011;22730;51.980;5.934;2023-09-07T16:37:38;3.92;;;3.63;;
36773;SDS011;22730;51.980;5.934;2023-09-07T16:40:06;4.90;;;4.43;;
36773;SDS011;22730;51.980;5.934;2023-09-07T16:42:33;3.90;;;3.65;;
36773;SDS011;22730;51.980;5.934;2023-09-07T16:45:02;4.38;;;4.07;;
36773;SDS011;22730;51.980;5.934;2023-09-07T16:47:28;3.63;;;3.33;;
36773;SDS011;22730;51.980;5.934;2023-09-07T16:49:54;3.60;;;3.33;;
36773;SDS011;22730;51.980;5.934;2023-09-07T16:52:22;4.10;;;3.70;;
36773;SDS011;22730;51.980;5.934;2023-09-07T16:54:48;3.63;;;3.33;;
36773;SDS011;22730;51.980;5.934;2023-09-07T16:57:16;3.88;;;3.58;;
36773;SDS011;22730;51.980;5.934;2023-09-07T16:59:44;3.28;;;3.08;;
36773;SDS011;22730;51.980;5.934;2023-09-07T17:02:12;4.15;;;3.80;;
36773;SDS011;22730;51.980;5.934;2023-09-07T17:04:38;3.80;;;3.50;;
36773;SDS011;22730;51.980;5.934;2023-09-07T17:07:04;4.32;;;3.67;;
36773;SDS011;22730;51.980;5.934;2023-09-07T17:09:33;5.15;;;4.10;;
36773;SDS011;22730;51.980;5.934;2023-09-07T17:12:02;3.55;;;3.33;;
36773;SDS011;22730;51.980;5.934;2023-09-07T17:16:57;4.25;;;3.63;;
36773;SDS011;22730;51.980;5.934;2023-09-07T17:19:23;3.80;;;3.50;;
36773;SDS011;22730;51.980;5.934;2023-09-07T17:21:50;3.72;;;3.53;;
36773;SDS011;22730;51.980;5.934;2023-09-07T17:24:22;3.70;;;3.40;;
36773;SDS011;22730;51.980;5.934;2023-09-07T17:26:48;4.05;;;3.65;;
36773;SDS011;22730;51.980;5.934;2023-09-07T17:29:13;4.47;;;4.07;;
36773;SDS011;22730;51.980;5.934;2023-09-07T17:31:52;3.60;;;3.33;;
36773;SDS011;22730;51.980;5.934;2023-09-07T17:34:22;3.33;;;3.13;;
36773;SDS011;22730;51.980;5.934;2023-09-07T17:36:53;3.65;;;3.35;;
36773;SDS011;22730;51.980;5.934;2023-09-07T17:39:24;3.72;;;3.42;;
36773;SDS011;22730;51.980;5.934;2023-09-07T17:41:50;3.65;;;3.45;;
36773;SDS011;22730;51.980;5.934;2023-09-07T17:44:16;4.22;;;3.92;;
36773;SDS011;22730;51.980;5.934;2023-09-07T17:46:42;3.70;;;3.40;;
36773;SDS011;22730;51.980;5.934;2023-09-07T17:49:07;3.90;;;3.60;;
36773;SDS011;22730;51.980;5.934;2023-09-07T17:51:34;3.88;;;3.58;;
36773;SDS011;22730;51.980;5.934;2023-09-07T17:54:02;3.97;;;3.58;;
36773;SDS011;22730;51.980;5.934;2023-09-07T17:56:28;3.60;;;3.40;;
36773;SDS011;22730;51.980;5.934;2023-09-07T17:58:54;3.42;;;3.13;;
36773;SDS011;22730;51.980;5.934;2023-09-07T18:01:19;3.70;;;3.40;;
36773;SDS011;22730;51.980;5.934;2023-09-07T18:03:45;3.40;;;3.20;;
36773;SDS011;22730;51.980;5.934;2023-09-07T18:06:12;3.67;;;3.38;;
36773;SDS011;22730;51.980;5.934;2023-09-07T18:08:39;3.25;;;2.92;;
36773;SDS011;22730;51.980;5.934;2023-09-07T18:11:05;3.88;;;3.60;;
36773;SDS011;22730;51.980;5.934;2023-09-07T18:13:31;3.60;;;3.30;;
36773;SDS011;22730;51.980;5.934;2023-09-07T18:15:57;3.42;;;3.22;;
36773;SDS011;22730;51.980;5.934;2023-09-07T18:18:24;3.80;;;3.50;;
36773;SDS011;22730;51.980;5.934;2023-09-07T18:20:50;3.75;;;2.58;;
36773;SDS011;22730;51.980;5.934;2023-09-07T18:23:16;3.33;;;3.03;;
36773;SDS011;22730;51.980;5.934;2023-09-07T18:25:42;3.65;;;3.35;;
36773;SDS011;22730;51.980;5.934;2023-09-07T18:28:09;4.28;;;3.05;;
36773;SDS011;22730;51.980;5.934;2023-09-07T18:30:36;3.42;;;3.13;;
36773;SDS011;22730;51.980;5.934;2023-09-07T18:33:05;2.92;;;2.72;;
36773;SDS011;22730;51.980;5.934;2023-09-07T18:35:34;3.17;;;2.97;;
36773;SDS011;22730;51.980;5.934;2023-09-07T18:40:30;3.35;;;3.05;;
36773;SDS011;22730;51.980;5.934;2023-09-07T18:42:56;3.95;;;3.03;;
36773;SDS011;22730;51.980;5.934;2023-09-07T18:45:23;3.53;;;3.22;;
36773;SDS011;22730;51.980;5.934;2023-09-07T18:47:53;3.88;;;3.60;;
36773;SDS011;22730;51.980;5.934;2023-09-07T18:50:20;6.20;;;3.22;;
36773;SDS011;22730;51.980;5.934;2023-09-07T18:52:48;4.72;;;4.35;;
36773;SDS011;22730;51.980;5.934;2023-09-07T18:55:15;3.72;;;3.40;;
36773;SDS011;22730;51.980;5.934;2023-09-07T18:57:42;3.50;;;3.20;;
36773;SDS011;22730;51.980;5.934;2023-09-07T19:00:08;5.28;;;3.13;;
